Airfield :
LOGIN :

Register | Disclaimer

   EN    FR    IT 

 










Legend :    VFR   Marginal VFR   IFR   Intensive IFR   Very Intensive IFR
Visi :
Ceiling :
>= 8 km
>= 3000ft
5 to 8 km
1000 to 3000 ft
1500m to 5 km
500 to 1000 ft
800 to 1500m
200 to 500 ft
< 800m
< 200 ft
Symbols :   Thunderstorms  Fog  Heavy snow  Heavy precipitations  Wind > 20 kt
SIGMETs :     Misc.  Thunderstorms  Icing  Turbulence  Mountain Waves  Volcanic Ashes






- Airport Elevation : 463 ft
- IATA code : SZY
- AIRPORT CLOSED.


EPSY - Szczytno

CURRENT METAR :
  • 310800Z 01019KT CAVOK 17/08 Q1014

EXPIRED METARs :
  • 310730Z 02017KT CAVOK 16/08 Q1014
  • 310700Z 01016KT CAVOK 16/08 Q1014
  • 310630Z 02016KT CAVOK 16/08 Q1014
  • 310600Z 02017KT CAVOK 15/07 Q1013
  • 310530Z 02016KT CAVOK 14/07 Q1013

TAF TAF EPSY
Valid from the 31 at 07:00 until the 31 at 15:00 UTC


310700Z 3107/3115 02017KT CAVOK
TEMPO 3107/3115 02018G28KT
PROB40
TEMPO 3108/3115 02021G35KT



MET'MAP, your aeronautical weather chart ! - Copyright ORBIFLY December 2007 - Disclaimer

ORBIFLY MET'MAP TEAM :

Programming & Development : Alexandra Zaïnal
Concept & original design : Baudouin d'Aumeries
Assistance for programming : Marc-Olivier Méhu
Technical & hardware support : Manuel Goepfert

Contact : metmap@orbifly.com




SOURCES & CREDITS :

   NOAA